createdAt,value
2023-06-10T00:00:06.860Z,245.78
2023-06-10T00:01:06.844Z,245.96
2023-06-10T00:02:06.872Z,246.17
2023-06-10T00:03:06.936Z,245.80
2023-06-10T00:04:06.945Z,246.37
2023-06-10T00:05:07.167Z,245.91
2023-06-10T00:06:06.830Z,246.20
2023-06-10T00:07:06.789Z,247.42
2023-06-10T00:08:06.799Z,247.88
2023-06-10T00:09:06.802Z,246.54
2023-06-10T00:10:06.767Z,244.93
2023-06-10T00:11:06.760Z,246.46
2023-06-10T00:12:06.769Z,245.17
2023-06-10T00:13:06.736Z,246.38
2023-06-10T00:14:06.731Z,246.36
2023-06-10T00:15:07.046Z,246.57
2023-06-10T00:16:06.721Z,246.91
2023-06-10T00:17:06.685Z,246.04
2023-06-10T00:18:06.739Z,246.50
2023-06-10T00:19:06.672Z,246.73
2023-06-10T00:20:06.654Z,246.61
2023-06-10T00:21:06.747Z,245.55
2023-06-10T00:22:06.725Z,245.63
2023-06-10T00:23:06.717Z,245.24
2023-06-10T00:24:06.788Z,245.35
2023-06-10T00:25:06.918Z,244.26
2023-06-10T00:26:06.749Z,246.18
2023-06-10T00:27:06.739Z,247.27
2023-06-10T00:28:06.742Z,247.36
2023-06-10T00:29:06.773Z,246.68
2023-06-10T00:30:06.723Z,245.20
2023-06-10T00:31:06.702Z,246.62
2023-06-10T00:32:06.781Z,246.15
2023-06-10T00:33:06.887Z,245.23
2023-06-10T00:34:06.970Z,246.63
2023-06-10T00:35:07.537Z,246.17
2023-06-10T00:36:07.095Z,246.18
2023-06-10T00:37:07.040Z,245.39
2023-06-10T00:38:07.019Z,245.32
2023-06-10T00:39:07.016Z,246.25
2023-06-10T00:40:07.007Z,246.39
2023-06-10T00:41:06.991Z,245.84
2023-06-10T00:42:06.982Z,246.25
2023-06-10T00:43:07.023Z,245.54
2023-06-10T00:44:07.003Z,247.65
2023-06-10T00:45:07.348Z,246.08
2023-06-10T00:46:07.110Z,246.59
2023-06-10T00:47:07.077Z,244.57
2023-06-10T00:48:07.099Z,246.37
2023-06-10T00:49:07.068Z,245.84
2023-06-10T00:50:07.061Z,246.35
2023-06-10T00:51:07.099Z,246.16
2023-06-10T00:52:07.074Z,246.23
2023-06-10T00:53:07.085Z,246.42
2023-06-10T00:54:07.079Z,246.44
2023-06-10T00:55:07.383Z,246.05
2023-06-10T00:56:07.039Z,246.65
2023-06-10T00:57:07.059Z,245.35
2023-06-10T00:58:07.026Z,247.40
2023-06-10T00:59:06.988Z,245.24
2023-06-10T01:00:06.982Z,246.08
2023-06-10T01:01:06.987Z,246.04
2023-06-10T01:02:06.959Z,245.91
2023-06-10T01:03:07.044Z,246.52
2023-06-10T01:04:06.907Z,244.67
2023-06-10T01:05:07.272Z,246.82
2023-06-10T01:06:06.895Z,246.87
2023-06-10T01:07:06.853Z,246.85
2023-06-10T01:08:06.855Z,247.10
2023-06-10T01:09:06.834Z,247.53
2023-06-10T01:10:06.840Z,246.98
2023-06-10T01:11:06.803Z,246.66
2023-06-10T01:12:06.788Z,247.31
2023-06-10T01:13:06.768Z,245.31
2023-06-10T01:14:06.768Z,244.69
2023-06-10T01:15:06.839Z,244.80
2023-06-10T01:16:06.728Z,245.07
2023-06-10T01:17:06.715Z,245.38
2023-06-10T01:18:06.739Z,245.59
2023-06-10T01:19:06.698Z,246.35
2023-06-10T01:20:06.671Z,245.74
2023-06-10T01:21:06.662Z,245.95
2023-06-10T01:22:06.738Z,246.11
2023-06-10T01:23:06.618Z,247.27
2023-06-10T01:24:06.645Z,246.07
2023-06-10T01:25:06.806Z,246.01
2023-06-10T01:26:06.618Z,245.69
2023-06-10T01:27:06.574Z,248.66
2023-06-10T01:28:06.555Z,245.39
2023-06-10T01:29:06.546Z,245.82
2023-06-10T01:30:06.535Z,246.10
2023-06-10T01:31:06.544Z,246.62
2023-06-10T01:32:06.517Z,246.48
2023-06-10T01:33:06.533Z,245.19
2023-06-10T01:34:06.520Z,246.43
2023-06-10T01:35:06.748Z,246.46
2023-06-10T01:36:06.717Z,245.11
2023-06-10T01:37:06.811Z,245.16
2023-06-10T01:38:06.909Z,246.06
2023-06-10T01:39:07.036Z,244.93
2023-06-10T01:40:07.196Z,246.54
2023-06-10T01:41:07.169Z,243.27
2023-06-10T01:42:07.072Z,244.58
2023-06-10T01:43:07.093Z,245.34
2023-06-10T01:44:07.125Z,244.85
2023-06-10T01:45:07.522Z,245.94
2023-06-10T01:46:07.206Z,245.04
2023-06-10T01:47:07.210Z,244.15
2023-06-10T01:48:07.162Z,244.85
2023-06-10T01:49:07.158Z,245.12
2023-06-10T01:50:07.115Z,246.48
2023-06-10T01:51:07.158Z,246.26
2023-06-10T01:52:07.189Z,245.01
2023-06-10T01:53:07.130Z,244.29
2023-06-10T01:54:07.107Z,245.58
2023-06-10T01:55:07.442Z,245.62
2023-06-10T01:56:07.205Z,248.23
2023-06-10T01:57:07.247Z,244.94
2023-06-10T01:58:07.192Z,244.99
2023-06-10T01:59:07.200Z,245.97
2023-06-10T02:00:07.127Z,243.99
2023-06-10T02:01:07.176Z,244.76
2023-06-10T02:02:07.127Z,245.75
2023-06-10T02:03:07.252Z,244.66
2023-06-10T02:04:07.326Z,245.74
2023-06-10T02:05:07.327Z,245.63
2023-06-10T02:06:07.297Z,244.47
2023-06-10T02:07:07.223Z,245.88
2023-06-10T02:08:07.178Z,246.51
2023-06-10T02:09:07.167Z,244.98
2023-06-10T02:10:07.156Z,243.80
2023-06-10T02:11:07.139Z,245.49
2023-06-10T02:12:07.258Z,245.16
2023-06-10T02:13:07.174Z,246.67
2023-06-10T02:14:07.174Z,243.61
2023-06-10T02:15:07.395Z,246.84
2023-06-10T02:16:07.231Z,244.06
2023-06-10T02:17:07.171Z,243.71
2023-06-10T02:18:07.233Z,244.65
2023-06-10T02:19:07.808Z,243.37
2023-06-10T02:20:07.184Z,244.79
2023-06-10T02:21:07.184Z,243.75
2023-06-10T02:22:07.189Z,245.65
2023-06-10T02:23:07.215Z,245.02
2023-06-10T02:24:07.232Z,244.19
2023-06-10T02:25:07.414Z,245.12
2023-06-10T02:26:07.225Z,246.24
2023-06-10T02:27:07.230Z,245.61
2023-06-10T02:28:07.240Z,243.78
2023-06-10T02:29:07.263Z,244.36
2023-06-10T02:30:07.266Z,245.85
2023-06-10T02:31:07.281Z,244.49
2023-06-10T02:32:10.457Z,244.77
2023-06-10T02:33:07.315Z,244.89
2023-06-10T02:34:07.267Z,244.48
2023-06-10T02:35:07.515Z,244.94
2023-06-10T02:36:07.242Z,244.47
2023-06-10T02:37:07.215Z,245.38
2023-06-10T02:38:07.217Z,244.05
2023-06-10T02:39:07.178Z,244.27
2023-06-10T02:40:07.194Z,246.05
2023-06-10T02:41:07.144Z,243.64
2023-06-10T02:42:07.131Z,245.41
2023-06-10T02:43:07.167Z,244.16
2023-06-10T02:44:07.086Z,243.28
2023-06-10T02:45:07.293Z,244.76
2023-06-10T02:46:07.086Z,243.99
2023-06-10T02:47:07.026Z,245.18
2023-06-10T02:48:07.032Z,245.31
2023-06-10T02:49:06.992Z,244.88
2023-06-10T02:50:06.996Z,244.95
2023-06-10T02:51:06.975Z,245.09
2023-06-10T02:52:06.954Z,244.77
2023-06-10T02:53:06.932Z,246.19
2023-06-10T02:54:06.905Z,243.15
2023-06-10T02:55:07.123Z,244.98
2023-06-10T02:56:06.892Z,244.16
2023-06-10T02:57:06.892Z,246.76
2023-06-10T02:58:06.854Z,245.47
2023-06-10T02:59:06.851Z,243.69
2023-06-10T03:00:06.843Z,244.12
2023-06-10T03:01:06.848Z,244.71
2023-06-10T03:02:06.818Z,243.30
2023-06-10T03:03:06.852Z,245.42
2023-06-10T03:04:06.865Z,246.40
2023-06-10T03:05:07.158Z,243.25
2023-06-10T03:06:06.750Z,240.59
2023-06-10T03:07:06.760Z,238.06
2023-06-10T03:08:06.787Z,235.40
2023-06-10T03:09:06.800Z,230.82
2023-06-10T03:10:06.826Z,226.15
2023-06-10T03:11:06.854Z,219.82
2023-06-10T03:12:06.858Z,216.11
2023-06-10T03:13:06.882Z,212.08
2023-06-10T03:14:06.904Z,206.67
2023-06-10T03:15:07.088Z,201.47
2023-06-10T03:16:06.979Z,198.54
2023-06-10T03:17:06.962Z,192.10
2023-06-10T03:18:07.019Z,190.84
2023-06-10T03:19:07.076Z,185.84
2023-06-10T03:20:07.073Z,183.82
2023-06-10T03:21:07.077Z,178.89
2023-06-10T03:22:07.104Z,174.77
2023-06-10T03:23:07.147Z,174.58
2023-06-10T03:24:07.236Z,173.40
2023-06-10T03:25:07.592Z,167.11
2023-06-10T03:26:07.263Z,164.11
2023-06-10T03:27:07.310Z,160.44
2023-06-10T03:28:07.363Z,157.78
2023-06-10T03:29:07.385Z,157.79
2023-06-10T03:30:07.450Z,152.87
2023-06-10T03:31:07.498Z,151.44
2023-06-10T03:32:07.569Z,146.12
2023-06-10T03:33:07.627Z,141.51
2023-06-10T03:34:07.626Z,143.66
2023-06-10T03:35:08.041Z,138.65
2023-06-10T03:36:07.718Z,136.64
2023-06-10T03:37:07.771Z,131.56
2023-06-10T03:38:07.831Z,133.20
2023-06-10T03:39:07.888Z,128.33
2023-06-10T03:40:07.951Z,124.07
2023-06-10T03:41:08.009Z,122.80
2023-06-10T03:42:08.076Z,124.75
2023-06-10T03:43:08.125Z,123.09
2023-06-10T03:44:08.179Z,121.50
2023-06-10T03:45:08.750Z,120.77
2023-06-10T03:46:08.301Z,119.48
2023-06-10T03:47:08.334Z,119.12
2023-06-10T03:48:08.484Z,117.51
2023-06-10T03:49:08.459Z,117.02
2023-06-10T03:50:08.504Z,115.62
2023-06-10T03:51:08.566Z,112.98
2023-06-10T03:52:08.598Z,114.70
2023-06-10T03:53:08.662Z,113.39
2023-06-10T03:54:08.767Z,114.03
2023-06-10T03:55:08.989Z,113.07
2023-06-10T03:56:08.848Z,113.08
2023-06-10T03:57:08.895Z,111.01
2023-06-10T03:58:08.984Z,109.70
2023-06-10T03:59:09.034Z,105.36
2023-06-10T04:00:09.097Z,109.65
2023-06-10T04:01:09.137Z,108.08
2023-06-10T04:02:09.184Z,108.29
2023-06-10T04:03:09.226Z,108.85
2023-06-10T04:04:09.119Z,110.90
2023-06-10T04:05:09.338Z,113.60
2023-06-10T04:06:09.138Z,118.73
2023-06-10T04:07:09.103Z,117.86
2023-06-10T04:08:09.095Z,117.34
2023-06-10T04:09:09.116Z,115.84
2023-06-10T04:10:09.091Z,116.12
2023-06-10T04:11:09.090Z,114.14
2023-06-10T04:12:09.076Z,114.10
2023-06-10T04:13:09.075Z,113.90
2023-06-10T04:14:09.107Z,115.13
2023-06-10T04:15:09.352Z,114.18
2023-06-10T04:16:09.057Z,110.61
2023-06-10T04:17:09.100Z,111.03
2023-06-10T04:18:09.075Z,111.68
2023-06-10T04:19:09.037Z,112.28
2023-06-10T04:20:09.063Z,113.63
2023-06-10T04:21:09.035Z,117.44
2023-06-10T04:22:09.026Z,115.98
2023-06-10T04:23:09.048Z,117.82
2023-06-10T04:24:09.108Z,118.41
2023-06-10T04:25:09.271Z,119.49
2023-06-10T04:26:09.058Z,119.93
2023-06-10T04:27:09.066Z,122.85
2023-06-10T04:28:09.067Z,123.89
2023-06-10T04:29:09.068Z,125.41
2023-06-10T04:30:09.086Z,127.14
2023-06-10T04:31:09.195Z,126.95
2023-06-10T04:32:09.114Z,127.71
2023-06-10T04:33:09.230Z,128.10
2023-06-10T04:34:09.146Z,128.34
2023-06-10T04:35:09.308Z,130.54
2023-06-10T04:36:09.168Z,130.41
2023-06-10T04:37:09.177Z,130.01
2023-06-10T04:38:09.178Z,129.78
2023-06-10T04:39:09.164Z,128.88
2023-06-10T04:40:09.156Z,128.94
2023-06-10T04:41:09.169Z,129.04
2023-06-10T04:42:09.122Z,129.22
2023-06-10T04:43:09.132Z,130.10
2023-06-10T04:44:09.102Z,131.40
2023-06-10T04:45:09.459Z,132.24
2023-06-10T04:46:09.456Z,132.50
2023-06-10T04:47:09.064Z,133.95
2023-06-10T04:48:09.107Z,135.25
2023-06-10T04:49:09.040Z,135.19
2023-06-10T04:50:09.037Z,134.52
2023-06-10T04:51:09.028Z,134.83
2023-06-10T04:52:09.023Z,134.66
2023-06-10T04:53:09.018Z,135.32
2023-06-10T04:54:09.045Z,135.46
2023-06-10T04:55:09.234Z,136.96
2023-06-10T04:56:09.081Z,137.91
2023-06-10T04:57:09.077Z,137.93
2023-06-10T04:58:09.012Z,139.15
2023-06-10T04:59:09.023Z,140.11
2023-06-10T05:00:09.073Z,139.16
2023-06-10T05:01:09.014Z,140.05
2023-06-10T05:02:09.095Z,141.01
2023-06-10T05:03:09.089Z,141.91
2023-06-10T05:04:09.153Z,143.59
2023-06-10T05:05:09.340Z,143.82
2023-06-10T05:06:09.103Z,144.10
2023-06-10T05:07:09.303Z,143.34
2023-06-10T05:08:09.328Z,144.25
2023-06-10T05:09:09.168Z,144.60
2023-06-10T05:10:09.269Z,144.42
2023-06-10T05:11:09.303Z,145.00
2023-06-10T05:12:09.313Z,146.11
2023-06-10T05:13:09.272Z,145.88
2023-06-10T05:14:09.279Z,146.69
2023-06-10T05:15:09.682Z,147.59
2023-06-10T05:16:09.372Z,147.53
2023-06-10T05:17:09.365Z,146.38
2023-06-10T05:18:09.474Z,147.64
2023-06-10T05:19:09.408Z,146.91
2023-06-10T05:20:09.447Z,147.81
2023-06-10T05:21:09.462Z,148.68
2023-06-10T05:22:09.555Z,149.07
2023-06-10T05:23:09.512Z,149.11
2023-06-10T05:24:09.585Z,149.48
2023-06-10T05:25:09.950Z,151.26
2023-06-10T05:26:09.595Z,150.59
2023-06-10T05:27:09.633Z,150.58
2023-06-10T05:28:09.660Z,152.73
2023-06-10T05:29:09.679Z,152.60
2023-06-10T05:30:09.703Z,152.84
2023-06-10T05:31:09.751Z,153.31
2023-06-10T05:32:09.921Z,153.27
2023-06-10T05:33:09.892Z,153.33
2023-06-10T05:34:09.812Z,153.14
2023-06-10T05:35:10.057Z,153.82
2023-06-10T05:36:09.911Z,154.32
2023-06-10T05:37:09.979Z,153.37
2023-06-10T05:38:10.064Z,154.97
2023-06-10T05:39:09.937Z,154.34
2023-06-10T05:40:09.965Z,156.33
2023-06-10T05:41:09.999Z,155.87
2023-06-10T05:42:10.039Z,156.01
2023-06-10T05:43:10.074Z,155.65
2023-06-10T05:44:11.921Z,156.43
2023-06-10T05:45:10.337Z,156.50
2023-06-10T05:46:10.258Z,156.67
2023-06-10T05:47:10.073Z,156.93
2023-06-10T05:48:10.126Z,157.93
2023-06-10T05:49:10.046Z,159.95
2023-06-10T05:50:10.041Z,160.47
2023-06-10T05:51:10.036Z,161.17
2023-06-10T05:52:10.054Z,160.96
2023-06-10T05:53:10.064Z,161.84
2023-06-10T05:54:10.041Z,160.96
2023-06-10T05:55:10.429Z,160.66
2023-06-10T05:56:10.041Z,160.95
2023-06-10T05:57:10.057Z,160.27
2023-06-10T05:58:10.029Z,159.88
2023-06-10T05:59:09.993Z,159.81
2023-06-10T06:00:10.003Z,160.41
2023-06-10T06:01:10.003Z,159.79
2023-06-10T06:02:10.020Z,161.06
2023-06-10T06:03:10.155Z,163.42
2023-06-10T06:04:10.027Z,165.48
2023-06-10T06:05:10.351Z,165.45
2023-06-10T06:06:09.964Z,167.14
2023-06-10T06:07:09.949Z,169.22
2023-06-10T06:08:09.951Z,170.94
2023-06-10T06:09:09.940Z,170.54
2023-06-10T06:10:09.957Z,170.75
2023-06-10T06:11:09.939Z,171.22
2023-06-10T06:12:09.944Z,172.34
2023-06-10T06:13:09.936Z,171.18
2023-06-10T06:14:09.906Z,169.06
2023-06-10T06:15:10.089Z,167.56
2023-06-10T06:16:09.902Z,163.16
2023-06-10T06:17:09.856Z,163.26
2023-06-10T06:18:09.903Z,163.21
2023-06-10T06:19:09.842Z,161.67
2023-06-10T06:20:09.854Z,160.88
2023-06-10T06:21:09.832Z,160.12
2023-06-10T06:22:09.818Z,157.23
2023-06-10T06:23:09.811Z,156.71
2023-06-10T06:24:09.866Z,155.93
2023-06-10T06:25:10.280Z,153.19
2023-06-10T06:26:09.780Z,151.19
2023-06-10T06:27:09.771Z,149.65
2023-06-10T06:28:09.800Z,148.49
2023-06-10T06:29:09.746Z,150.70
2023-06-10T06:30:09.748Z,150.62
2023-06-10T06:31:09.772Z,151.64
2023-06-10T06:32:09.712Z,151.87
2023-06-10T06:33:09.754Z,150.90
2023-06-10T06:34:09.684Z,151.75
2023-06-10T06:35:10.099Z,152.27
2023-06-10T06:36:09.651Z,152.33
2023-06-10T06:37:09.629Z,153.95
2023-06-10T06:38:09.638Z,153.96
2023-06-10T06:39:09.635Z,154.09
2023-06-10T06:40:09.610Z,154.62
2023-06-10T06:41:09.594Z,154.23
2023-06-10T06:42:09.606Z,154.90
2023-06-10T06:43:09.580Z,156.83
2023-06-10T06:44:09.618Z,158.47
2023-06-10T06:45:09.766Z,154.37
2023-06-10T06:46:09.552Z,155.48
2023-06-10T06:47:09.558Z,156.96
2023-06-10T06:48:09.673Z,160.15
2023-06-10T06:49:09.520Z,164.49
2023-06-10T06:50:09.514Z,164.58
2023-06-10T06:51:09.534Z,166.14
2023-06-10T06:52:09.494Z,165.97
2023-06-10T06:53:09.503Z,164.63
2023-06-10T06:54:09.484Z,165.03
2023-06-10T06:55:09.810Z,163.86
2023-06-10T06:56:09.474Z,162.45
2023-06-10T06:57:09.461Z,160.00
2023-06-10T06:58:09.462Z,158.49
2023-06-10T06:59:09.458Z,155.84
2023-06-10T07:00:09.431Z,150.89
2023-06-10T07:01:09.518Z,146.21
2023-06-10T07:02:09.430Z,145.35
2023-06-10T07:03:09.528Z,141.38
2023-06-10T07:04:09.418Z,138.10
2023-06-10T07:05:09.712Z,130.22
2023-06-10T07:06:09.371Z,127.83
2023-06-10T07:07:09.365Z,121.88
2023-06-10T07:08:09.363Z,118.41
2023-06-10T07:09:09.356Z,113.40
2023-06-10T07:10:09.357Z,107.42
2023-06-10T07:11:09.334Z,101.28
2023-06-10T07:12:09.340Z,94.93
2023-06-10T07:13:09.326Z,88.68
2023-06-10T07:14:09.305Z,81.47
2023-06-10T07:15:09.644Z,70.97
2023-06-10T07:16:09.287Z,67.36
2023-06-10T07:17:09.449Z,60.97
2023-06-10T07:18:09.362Z,50.70
2023-06-10T07:19:09.282Z,42.94
2023-06-10T07:20:09.285Z,38.53
2023-06-10T07:21:09.273Z,34.54
2023-06-10T07:22:09.250Z,25.00
2023-06-10T07:23:09.256Z,24.96
2023-06-10T07:24:09.250Z,26.40
2023-06-10T07:25:09.543Z,25.94
2023-06-10T07:26:09.214Z,25.09
2023-06-10T07:27:09.199Z,25.43
2023-06-10T07:28:09.200Z,26.79
2023-06-10T07:29:09.185Z,22.89
2023-06-10T07:30:09.163Z,16.65
2023-06-10T07:31:09.222Z,11.73
2023-06-10T07:32:09.156Z,6.70
2023-06-10T07:33:09.244Z,4.17
2023-06-10T07:34:09.178Z,16.39
2023-06-10T07:35:09.475Z,25.00
2023-06-10T07:36:09.126Z,26.03
2023-06-10T07:37:09.158Z,25.00
2023-06-10T07:38:09.195Z,26.01
2023-06-10T07:39:09.246Z,25.74
2023-06-10T07:40:09.286Z,25.00
2023-06-10T07:41:09.337Z,27.42
2023-06-10T07:42:09.367Z,24.56
2023-06-10T07:43:09.421Z,25.00
2023-06-10T07:44:09.449Z,25.83
2023-06-10T07:45:09.623Z,25.35
2023-06-10T07:46:09.565Z,27.53
2023-06-10T07:47:09.605Z,25.00
2023-06-10T07:48:09.690Z,26.28
2023-06-10T07:49:09.704Z,25.60
2023-06-10T07:50:09.767Z,25.00
2023-06-10T07:51:09.823Z,25.64
2023-06-10T07:52:09.882Z,25.00
2023-06-10T07:53:09.966Z,26.78
2023-06-10T07:54:10.002Z,25.43
2023-06-10T07:55:10.166Z,26.44
2023-06-10T07:56:10.127Z,25.47
2023-06-10T07:57:10.170Z,24.90
2023-06-10T07:58:10.162Z,21.20
2023-06-10T07:59:10.130Z,15.64
2023-06-10T08:00:10.138Z,16.75
2023-06-10T08:01:10.107Z,15.13
2023-06-10T08:02:10.086Z,11.16
2023-06-10T08:03:10.176Z,20.31
2023-06-10T08:04:10.171Z,24.44
2023-06-10T08:05:10.320Z,26.23
2023-06-10T08:06:10.031Z,24.86
2023-06-10T08:07:10.068Z,26.37
2023-06-10T08:08:10.121Z,27.13
2023-06-10T08:09:10.168Z,25.00
2023-06-10T08:10:10.234Z,25.48
2023-06-10T08:11:10.259Z,25.94
2023-06-10T08:12:10.304Z,25.87
2023-06-10T08:13:10.349Z,25.81
2023-06-10T08:14:10.410Z,26.19
2023-06-10T08:15:10.804Z,26.02
2023-06-10T08:16:10.500Z,28.88
2023-06-10T08:17:10.512Z,27.94
2023-06-10T08:18:10.645Z,26.36
2023-06-10T08:19:10.613Z,25.00
2023-06-10T08:20:10.620Z,26.55
2023-06-10T08:21:10.656Z,25.00
2023-06-10T08:22:10.693Z,25.00
2023-06-10T08:23:10.742Z,25.73
2023-06-10T08:24:10.875Z,27.11
2023-06-10T08:25:11.148Z,25.79
2023-06-10T08:26:10.851Z,26.29
2023-06-10T08:27:10.876Z,25.67
2023-06-10T08:28:10.928Z,25.24
2023-06-10T08:29:10.938Z,26.27
2023-06-10T08:30:10.983Z,25.00
2023-06-10T08:31:11.005Z,26.21
2023-06-10T08:32:11.082Z,25.81
2023-06-10T08:33:11.141Z,25.16
2023-06-10T08:34:11.028Z,21.25
2023-06-10T08:35:11.222Z,20.14
2023-06-10T08:36:11.002Z,17.83
2023-06-10T08:37:10.981Z,16.13
2023-06-10T08:38:10.966Z,23.09
2023-06-10T08:39:10.941Z,25.00
2023-06-10T08:40:10.920Z,25.00
2023-06-10T08:41:10.918Z,27.82
2023-06-10T08:42:10.922Z,25.00
2023-06-10T08:43:10.901Z,25.72
2023-06-10T08:44:10.850Z,23.95
2023-06-10T08:45:11.128Z,21.73
2023-06-10T08:46:10.818Z,20.99
2023-06-10T08:47:10.804Z,20.31
2023-06-10T08:48:10.875Z,19.91
2023-06-10T08:49:10.839Z,19.13
2023-06-10T08:50:12.711Z,18.91
2023-06-10T08:51:10.739Z,18.30
2023-06-10T08:52:10.728Z,25.64
2023-06-10T08:53:10.727Z,25.54
2023-06-10T08:54:10.698Z,26.30
2023-06-10T08:55:10.920Z,26.06
2023-06-10T08:56:10.679Z,27.61
2023-06-10T08:57:10.666Z,26.74
2023-06-10T08:58:10.637Z,28.11
2023-06-10T08:59:10.677Z,28.20
2023-06-10T09:00:10.887Z,28.04
2023-06-10T09:01:10.782Z,28.05
2023-06-10T09:02:10.710Z,28.17
2023-06-10T09:03:10.776Z,28.85
2023-06-10T09:04:10.723Z,29.55
2023-06-10T09:05:10.654Z,29.74
2023-06-10T09:06:10.645Z,34.92
2023-06-10T09:07:10.600Z,42.01
2023-06-10T09:08:10.589Z,47.64
2023-06-10T09:09:10.572Z,51.32
2023-06-10T09:10:10.767Z,59.51
2023-06-10T09:11:10.558Z,69.67
2023-06-10T09:12:10.562Z,72.84
2023-06-10T09:13:10.529Z,78.79
2023-06-10T09:14:10.509Z,85.98
2023-06-10T09:15:10.498Z,89.68
2023-06-10T09:16:10.520Z,95.28
2023-06-10T09:17:10.508Z,101.14
2023-06-10T09:18:10.613Z,103.89
2023-06-10T09:19:10.569Z,106.90
2023-06-10T09:20:11.232Z,112.31
2023-06-10T09:21:10.538Z,112.41
2023-06-10T09:22:10.573Z,113.31
2023-06-10T09:23:10.576Z,115.33
2023-06-10T09:24:10.582Z,119.58
2023-06-10T09:25:10.507Z,128.81
2023-06-10T09:26:10.835Z,134.29
2023-06-10T09:27:10.529Z,134.61
2023-06-10T09:28:10.457Z,138.75
2023-06-10T09:29:10.586Z,142.46
2023-06-10T09:30:10.591Z,144.62
2023-06-10T09:31:10.453Z,147.51
2023-06-10T09:32:10.778Z,149.60
2023-06-10T09:33:10.436Z,151.85
2023-06-10T09:34:10.326Z,155.38
2023-06-10T09:35:10.284Z,156.72
2023-06-10T09:36:10.308Z,159.27
2023-06-10T09:37:10.299Z,163.49
2023-06-10T09:38:10.920Z,164.86
2023-06-10T09:39:10.228Z,166.70
2023-06-10T09:40:10.583Z,167.88
2023-06-10T09:41:10.175Z,171.39
2023-06-10T09:42:10.222Z,174.19
2023-06-10T09:43:10.161Z,175.24
2023-06-10T09:44:10.340Z,177.95
2023-06-10T09:45:10.108Z,178.63
2023-06-10T09:46:10.121Z,179.45
2023-06-10T09:47:10.073Z,182.40
2023-06-10T09:48:10.108Z,185.65
2023-06-10T09:49:10.054Z,188.16
2023-06-10T09:50:11.413Z,190.71
2023-06-10T09:51:10.091Z,193.60
2023-06-10T09:52:10.035Z,195.78
2023-06-10T09:53:10.001Z,195.87
2023-06-10T09:54:09.952Z,196.50
2023-06-10T09:55:09.943Z,197.89
2023-06-10T09:56:11.086Z,199.95
2023-06-10T09:57:09.956Z,204.18
2023-06-10T09:58:09.962Z,206.39
2023-06-10T09:59:09.864Z,208.77
2023-06-10T10:00:10.193Z,209.59
2023-06-10T10:01:09.844Z,212.19
2023-06-10T10:02:11.349Z,213.29
2023-06-10T10:03:09.833Z,214.14
2023-06-10T10:04:09.796Z,215.29
2023-06-10T10:05:10.051Z,216.76
2023-06-10T10:06:09.786Z,219.00
2023-06-10T10:07:09.750Z,219.32
2023-06-10T10:08:09.734Z,220.25
2023-06-10T10:09:09.792Z,221.12
2023-06-10T10:10:09.715Z,221.44
2023-06-10T10:11:09.713Z,224.19
2023-06-10T10:12:09.705Z,225.14
2023-06-10T10:13:09.747Z,226.27
2023-06-10T10:14:10.878Z,227.05
2023-06-10T10:15:10.029Z,228.35
2023-06-10T10:16:09.762Z,228.39
2023-06-10T10:17:09.863Z,228.76
2023-06-10T10:18:10.104Z,229.43
2023-06-10T10:19:09.698Z,231.45
2023-06-10T10:20:09.673Z,234.39
2023-06-10T10:21:09.649Z,235.72
2023-06-10T10:22:09.622Z,236.62
2023-06-10T10:23:09.626Z,237.64
2023-06-10T10:24:09.605Z,238.34
2023-06-10T10:25:09.902Z,239.12
2023-06-10T10:26:10.871Z,239.22
2023-06-10T10:27:09.597Z,239.23
2023-06-10T10:28:09.546Z,240.19
2023-06-10T10:29:09.513Z,241.21
2023-06-10T10:30:09.592Z,242.44
2023-06-10T10:31:09.518Z,242.48
2023-06-10T10:32:09.676Z,243.65
2023-06-10T10:33:11.054Z,244.88
2023-06-10T10:34:09.779Z,246.17
2023-06-10T10:35:09.918Z,246.04
2023-06-10T10:36:09.625Z,246.14
2023-06-10T10:37:09.678Z,246.39
2023-06-10T10:38:09.586Z,246.94
2023-06-10T10:39:09.565Z,247.97
2023-06-10T10:40:09.566Z,246.23
2023-06-10T10:41:09.534Z,246.78
2023-06-10T10:42:09.622Z,247.72
2023-06-10T10:43:09.512Z,249.66
2023-06-10T10:44:09.497Z,251.92
2023-06-10T10:45:09.738Z,249.78
2023-06-10T10:46:09.473Z,249.81
2023-06-10T10:47:09.430Z,250.01
2023-06-10T10:48:09.458Z,250.16
2023-06-10T10:49:09.432Z,250.55
2023-06-10T10:50:10.039Z,251.36
2023-06-10T10:51:09.372Z,249.11
2023-06-10T10:52:09.357Z,249.81
2023-06-10T10:53:09.362Z,249.93
2023-06-10T10:54:09.304Z,249.61
2023-06-10T10:55:09.525Z,249.80
2023-06-10T10:56:09.844Z,249.20
2023-06-10T10:57:09.604Z,249.89
2023-06-10T10:58:09.501Z,249.23
2023-06-10T10:59:09.512Z,248.23
2023-06-10T11:00:09.655Z,249.26
2023-06-10T11:01:09.613Z,249.65
2023-06-10T11:02:09.798Z,249.34
2023-06-10T11:03:11.485Z,249.83
2023-06-10T11:04:09.897Z,249.72
2023-06-10T11:05:10.055Z,249.27
2023-06-10T11:06:09.823Z,249.42
2023-06-10T11:07:09.882Z,249.75
2023-06-10T11:08:09.926Z,248.87
2023-06-10T11:09:10.044Z,249.49
2023-06-10T11:10:10.038Z,249.35
2023-06-10T11:11:10.053Z,248.86
2023-06-10T11:12:10.108Z,249.61
2023-06-10T11:13:10.178Z,249.26
2023-06-10T11:14:10.218Z,249.56
2023-06-10T11:15:10.598Z,249.31
2023-06-10T11:16:10.312Z,249.95
2023-06-10T11:17:10.341Z,248.67
2023-06-10T11:18:10.404Z,249.35
2023-06-10T11:19:10.592Z,250.00
2023-06-10T11:20:10.393Z,250.03
2023-06-10T11:21:10.397Z,249.85
2023-06-10T11:22:10.344Z,249.02
2023-06-10T11:23:10.398Z,250.24
2023-06-10T11:24:10.419Z,250.57
2023-06-10T11:25:10.553Z,248.80
2023-06-10T11:26:10.254Z,249.10
2023-06-10T11:27:10.242Z,248.05
2023-06-10T11:28:10.361Z,248.87
2023-06-10T11:29:10.344Z,248.13
2023-06-10T11:30:10.354Z,248.74
2023-06-10T11:31:10.415Z,248.57
2023-06-10T11:32:10.578Z,248.17
2023-06-10T11:33:10.506Z,249.85
2023-06-10T11:34:10.501Z,249.96
2023-06-10T11:35:10.734Z,249.46
2023-06-10T11:36:10.594Z,248.66
2023-06-10T11:37:10.633Z,249.09
2023-06-10T11:38:10.692Z,249.48
2023-06-10T11:39:10.746Z,249.60
2023-06-10T11:40:10.776Z,248.95
2023-06-10T11:41:10.802Z,249.39
2023-06-10T11:42:10.855Z,249.36
2023-06-10T11:43:10.881Z,249.77
2023-06-10T11:44:10.916Z,249.57
2023-06-10T11:45:11.247Z,249.96
2023-06-10T11:46:11.013Z,248.85
2023-06-10T11:47:11.032Z,249.30
2023-06-10T11:48:11.109Z,247.94
2023-06-10T11:49:11.157Z,249.33
2023-06-10T11:50:11.202Z,249.28
2023-06-10T11:51:11.187Z,248.47
2023-06-10T11:52:11.227Z,248.82
2023-06-10T11:53:11.288Z,249.36
2023-06-10T11:54:11.322Z,248.88
2023-06-10T11:55:11.624Z,248.79
2023-06-10T11:56:11.380Z,248.55
2023-06-10T11:57:11.391Z,249.31
2023-06-10T11:58:11.429Z,248.01
2023-06-10T11:59:11.495Z,249.45
2023-06-10T12:00:11.523Z,248.70
2023-06-10T12:01:13.282Z,248.42
2023-06-10T12:02:11.625Z,248.53
2023-06-10T12:03:11.725Z,249.38
2023-06-10T12:04:11.713Z,249.54
2023-06-10T12:05:12.030Z,248.98
2023-06-10T12:06:11.811Z,248.02
2023-06-10T12:07:11.840Z,248.74
2023-06-10T12:08:11.876Z,249.68
2023-06-10T12:09:22.682Z,249.46
2023-06-10T12:10:26.492Z,249.50
2023-06-10T12:11:12.887Z,249.53
2023-06-10T12:12:11.855Z,249.65
2023-06-10T12:13:11.846Z,249.08
2023-06-10T12:14:11.820Z,249.90
2023-06-10T12:15:12.054Z,250.31
2023-06-10T12:16:11.808Z,250.28
2023-06-10T12:17:11.785Z,247.56
2023-06-10T12:18:11.818Z,248.50
2023-06-10T12:19:11.737Z,248.81
2023-06-10T12:20:11.753Z,249.20
2023-06-10T12:21:11.816Z,249.27
2023-06-10T12:22:11.866Z,248.07
2023-06-10T12:23:11.939Z,249.60
2023-06-10T12:24:12.028Z,248.58
2023-06-10T12:25:12.629Z,248.64
2023-06-10T12:26:11.930Z,248.71
2023-06-10T12:27:11.915Z,247.76
2023-06-10T12:28:11.880Z,247.82
2023-06-10T12:29:11.874Z,248.21
2023-06-10T12:30:11.847Z,248.83
2023-06-10T12:31:11.829Z,247.92
2023-06-10T12:32:11.898Z,248.41